LTAP

Amasya Merzifon Airport

Amasya, Turkey
TAF LTAP 182240Z 1900/1924 VRB02KT 8000 SCT023 PROB40 TEMPO 1903/1907 2500 BR BKN005 BECMG 1918/1922 FEW015 BKN033
Issued Valid From Valid To
Jan-18 @ 22:40 UTC
(4 hours ago)
Jan-19 @ 00:00 UTC
(3 hours ago)
Jan-20 @ 00:00 UTC
(in 21 hours)
Jan-19 @ 00:00 to Jan-19 @ 18:00
TAF LTAP 182240Z 1900/1924 VRB02KT 8000 SCT023
Wind Visibility Clouds
Variable at 2 knots 7,998 meters
  • Scattered at 2,300' AGL
Temporary  (Probability 40%) Jan-19 @ 03:00 to Jan-19 @ 07:00
PROB40 TEMPO 1903/1907 2500 BR BKN005
Visibility Clouds Conditions
2,494 meters
  • Broken at 500' AGL
  • Mist
Becoming Jan-19 @ 18:00 to Jan-20 @ 00:00
BECMG 1918/1922 FEW015 BKN033
Wind Visibility Clouds
Variable at 2 knots 7,998 meters
  • Few at 1,500' AGL
  • Broken at 3,300' AGL
TAF LTAP 182240Z 1900/1924 VRB02KT 8000 SCT023 PROB40 TEMPO 1903/1907 2500 BR BKN005 BECMG 1918/1922 FEW015 BKN033
Issued Jan-18 @ 22:40 UTC
(4 hours ago)
Valid From Jan-19 @ 00:00 UTC
(3 hours ago)
Valid To Jan-20 @ 00:00 UTC
(in 21 hours)
Jan-19 @ 00:00 - Jan-19 @ 18:00
Wind Visibility
Variable at 2 knots 7,998 meters
Clouds
  • Scattered at 2,300' AGL
Probability 40% Temporary Jan-19 @ 03:00 - Jan-19 @ 07:00
Clouds
  • Broken at 500' AGL
Conditions
  • Mist
Becoming Jan-19 @ 18:00 - Jan-20 @ 00:00
Wind Visibility
Variable at 2 knots 7,998 meters
Clouds
  • Few at 1,500' AGL
  • Broken at 3,300' AGL